Time;durP1;ratioP1;P1;durP2;ratioP2;P2;SDS_P1;SDS_P2;PMS_P1;PMS_P2;Temp;Humidity;BMP_temperature;BMP_pressure;BME280_temperature;BME280_humidity;BME280_pressure;Samples;Min_cycle;Max_cycle;Signal;HPM_P1;HPM_P2
2024/01/23 00:01:11;;;;;;;;;;;10.10;99.90;;;;;;5118893;28;19907;-75
2024/01/23 00:03:36;;;;;;;;;;;10.20;99.90;;;;;;5118170;28;19911;-76
2024/01/23 00:06:02;;;;;;;;;;;10.20;99.90;;;;;;5119005;28;19903;-75
2024/01/23 00:08:27;;;;;;;;;;;10.20;99.90;;;;;;5113519;27;19904;-76
2024/01/23 00:10:53;;;;;;;;;;;10.20;99.90;;;;;;5117283;28;19941;-76
2024/01/23 00:13:19;;;;;;;;;;;10.20;99.90;;;;;;5118047;28;19922;-76
2024/01/23 00:15:44;;;;;;;;;;;10.20;99.90;;;;;;5109077;28;19914;-77
2024/01/23 00:18:10;;;;;;;;;;;10.10;99.90;;;;;;5118326;28;20375;-78
2024/01/23 00:20:35;;;;;;;;;;;10.10;99.90;;;;;;5117290;28;19904;-77
2024/01/23 00:23:01;;;;;;;;;;;10.10;99.90;;;;;;5117658;27;20279;-75
2024/01/23 00:25:26;;;;;;;;;;;10.10;99.90;;;;;;5117200;28;20404;-77
2024/01/23 00:27:52;;;;;;;;;;;10.10;99.90;;;;;;5116687;28;20302;-76
2024/01/23 00:30:17;;;;;;;;;;;10.10;99.90;;;;;;5116900;28;19904;-77
2024/01/23 00:32:43;;;;;;;;;;;10.10;99.90;;;;;;5117823;28;19904;-76
2024/01/23 00:35:08;;;;;;;;;;;10.10;99.90;;;;;;5118014;28;19954;-76
2024/01/23 00:37:34;;;;;;;;;;;10.10;99.90;;;;;;5117417;28;19942;-76
2024/01/23 00:40:01;;;;;;;;;;;10.10;99.90;;;;;;5118164;28;19908;-76
2024/01/23 00:42:26;;;;;;;;;;;10.10;99.90;;;;;;5102888;28;20746;-77
2024/01/23 00:44:53;;;;;;;;;;;10.00;99.90;;;;;;5116776;28;19903;-77
2024/01/23 00:47:19;;;;;;;;;;;10.00;99.90;;;;;;5116034;28;20367;-76
2024/01/23 00:49:45;;;;;;;;;;;10.00;99.90;;;;;;5117961;28;19931;-76
2024/01/23 00:52:10;;;;;;;;;;;10.00;99.90;;;;;;5117402;28;19929;-77
2024/01/23 00:54:36;;;;;;;;;;;10.00;99.90;;;;;;5117534;28;19986;-76
2024/01/23 00:57:05;;;;;;;;;;;10.00;99.90;;;;;;5115530;28;19915;-76
2024/01/23 00:59:30;;;;;;;;;;;10.00;99.90;;;;;;5117839;28;20433;-75
2024/01/23 01:01:56;;;;;;;;;;;10.00;99.90;;;;;;5117630;28;19954;-76
2024/01/23 01:04:21;;;;;;;;;;;9.90;99.90;;;;;;5105584;28;20326;-76
2024/01/23 01:06:47;;;;;;;;;;;9.90;99.90;;;;;;5115929;28;20326;-76
2024/01/23 01:09:12;;;;;;;;;;;9.80;99.90;;;;;;5115951;28;19908;-77
2024/01/23 01:11:38;;;;;;;;;;;9.80;99.90;;;;;;5116066;28;19957;-76
2024/01/23 01:14:04;;;;;;;;;;;9.70;99.90;;;;;;5116992;28;19946;-76
2024/01/23 01:16:29;;;;;;;;;;;9.80;99.90;;;;;;5116966;28;19904;-76
2024/01/23 01:18:56;;;;;;;;;;;9.70;99.90;;;;;;5116319;28;20031;-76
2024/01/23 01:21:22;;;;;;;;;;;9.70;99.90;;;;;;5117199;28;19910;-76
2024/01/23 01:23:47;;;;;;;;;;;9.60;99.90;;;;;;5117559;28;19975;-76
2024/01/23 01:26:13;;;;;;;;;;;9.60;99.90;;;;;;5116948;28;19971;-77
2024/01/23 01:28:38;;;;;;;;;;;9.60;99.90;;;;;;5117216;28;19918;-76
2024/01/23 01:31:04;;;;;;;;;;;9.60;99.90;;;;;;5116881;28;19904;-76
2024/01/23 01:33:29;;;;;;;;;;;9.60;99.90;;;;;;5115876;28;19904;-76
2024/01/23 01:35:55;;;;;;;;;;;9.50;99.90;;;;;;5115543;28;19903;-76
2024/01/23 01:38:20;;;;;;;;;;;9.50;99.90;;;;;;5116627;28;19907;-76
2024/01/23 01:40:46;;;;;;;;;;;9.40;99.90;;;;;;5116779;28;19912;-76
2024/01/23 01:43:25;;;;;;;;;;;9.40;99.90;;;;;;5116676;28;19946;-76
2024/01/23 01:46:12;;;;;;;;;;;9.40;99.90;;;;;;5116575;28;19904;-76
2024/01/23 01:48:38;;;;;;;;;;;9.30;99.90;;;;;;5114753;28;20003;-76
2024/01/23 01:51:04;;;;;;;;;;;9.30;99.90;;;;;;5116713;28;19947;-76
2024/01/23 01:53:30;;;;;;;;;;;9.30;99.90;;;;;;5116242;28;19947;-76
2024/01/23 01:55:56;;;;;;;;;;;9.20;99.90;;;;;;5112387;27;20434;-76
2024/01/23 01:58:23;;;;;;;;;;;9.10;99.90;;;;;;5109536;28;19915;-75
2024/01/23 02:00:50;;;;;;;;;;;9.00;99.90;;;;;;5116599;28;19908;-76
2024/01/23 02:03:17;;;;;;;;;;;8.80;99.90;;;;;;5115346;28;20387;-76
2024/01/23 02:05:43;;;;;;;;;;;8.60;99.90;;;;;;5116582;28;19907;-75
2024/01/23 02:08:08;;;;;;;;;;;8.60;99.90;;;;;;5116179;28;19904;-75
2024/01/23 02:10:34;;;;;;;;;;;8.50;99.90;;;;;;5116295;28;19949;-76
2024/01/23 02:12:59;;;;;;;;;;;8.40;99.90;;;;;;5116260;28;19904;-76
2024/01/23 02:15:25;;;;;;;;;;;8.40;99.90;;;;;;5114916;28;19904;-76
2024/01/23 02:17:50;;;;;;;;;;;8.40;99.90;;;;;;5114814;28;20284;-75
2024/01/23 02:20:16;;;;;;;;;;;8.30;99.90;;;;;;5116315;28;20394;-75
2024/01/23 02:22:41;;;;;;;;;;;8.30;99.90;;;;;;5114487;28;19916;-75
2024/01/23 02:25:07;;;;;;;;;;;8.30;99.90;;;;;;5116117;28;19929;-75
2024/01/23 02:27:32;;;;;;;;;;;8.30;99.90;;;;;;5116028;28;19956;-75
2024/01/23 02:29:58;;;;;;;;;;;8.20;99.90;;;;;;5116256;28;19914;-76
2024/01/23 02:32:23;;;;;;;;;;;8.20;99.90;;;;;;5115844;28;19904;-75
2024/01/23 02:34:49;;;;;;;;;;;8.20;99.90;;;;;;5116254;28;19954;-75
2024/01/23 02:37:14;;;;;;;;;;;8.20;99.90;;;;;;5115441;28;19935;-75
2024/01/23 02:39:41;;;;;;;;;;;8.10;99.90;;;;;;5114802;28;19939;-75
2024/01/23 02:42:09;;;;;;;;;;;8.10;99.90;;;;;;5114589;28;20342;-75
2024/01/23 02:44:34;;;;;;;;;;;8.10;99.90;;;;;;5115976;28;19998;-75
2024/01/23 02:47:00;;;;;;;;;;;8.00;99.90;;;;;;5115927;28;19961;-75
2024/01/23 02:49:25;;;;;;;;;;;8.00;99.90;;;;;;5115909;28;19904;-76
2024/01/23 02:51:52;;;;;;;;;;;8.10;99.90;;;;;;5115520;28;19929;-76
2024/01/23 02:54:17;;;;;;;;;;;8.10;99.90;;;;;;5116093;28;19907;-76
2024/01/23 02:56:44;;;;;;;;;;;8.10;99.90;;;;;;5114013;28;20416;-76
2024/01/23 02:59:09;;;;;;;;;;;8.10;99.90;;;;;;5115762;28;19907;-75
2024/01/23 03:01:35;;;;;;;;;;;8.10;99.90;;;;;;5119255;28;20298;-75
2024/01/23 03:04:01;;;;;;;;;;;8.10;99.90;;;;;;5119508;28;19911;-75
2024/01/23 03:06:26;;;;;;;;;;;8.10;99.90;;;;;;5119530;28;19903;-76
2024/01/23 03:08:52;;;;;;;;;;;8.20;99.90;;;;;;5119641;28;19904;-75
2024/01/23 03:11:17;;;;;;;;;;;8.40;99.90;;;;;;5118246;28;19915;-76
2024/01/23 03:13:43;;;;;;;;;;;8.40;99.90;;;;;;5119467;28;19911;-76
2024/01/23 03:16:08;;;;;;;;;;;8.30;99.90;;;;;;5119544;28;19915;-76
2024/01/23 03:18:34;;;;;;;;;;;8.30;99.90;;;;;;5118443;28;20458;-76
2024/01/23 03:21:00;;;;;;;;;;;8.20;99.90;;;;;;5119171;28;19907;-76
2024/01/23 03:23:25;;;;;;;;;;;8.20;99.90;;;;;;5119420;28;19957;-75
2024/01/23 03:25:51;;;;;;;;;;;8.10;99.90;;;;;;5119448;27;19910;-75
2024/01/23 03:28:16;;;;;;;;;;;8.10;99.90;;;;;;5109024;28;19908;-76
2024/01/23 03:30:42;;;;;;;;;;;8.20;99.90;;;;;;5117866;28;19903;-76
2024/01/23 03:33:07;;;;;;;;;;;8.20;99.90;;;;;;5119246;28;19921;-76
2024/01/23 03:35:33;;;;;;;;;;;8.30;99.90;;;;;;5117805;28;19904;-76
2024/01/23 03:37:58;;;;;;;;;;;8.40;99.90;;;;;;5119087;28;20375;-76
2024/01/23 03:40:24;;;;;;;;;;;8.40;99.90;;;;;;5117512;28;20398;-76
2024/01/23 03:42:49;;;;;;;;;;;8.40;99.90;;;;;;5117682;28;19973;-76
2024/01/23 03:45:15;;;;;;;;;;;8.40;99.90;;;;;;5117511;28;19915;-77
2024/01/23 03:47:40;;;;;;;;;;;8.50;99.90;;;;;;5118906;28;20402;-77
2024/01/23 03:50:06;;;;;;;;;;;8.60;99.90;;;;;;5117502;28;19986;-77
2024/01/23 03:52:32;;;;;;;;;;;8.80;99.90;;;;;;5115649;28;19911;-76
2024/01/23 03:54:57;;;;;;;;;;;8.90;99.90;;;;;;5112861;28;19908;-76
2024/01/23 03:57:23;;;;;;;;;;;9.00;99.90;;;;;;5118191;28;19920;-77
2024/01/23 03:59:49;;;;;;;;;;;9.20;99.90;;;;;;5118647;28;19939;-76
2024/01/23 04:02:14;;;;;;;;;;;9.30;99.90;;;;;;5115757;28;19912;-76
2024/01/23 04:04:40;;;;;;;;;;;9.30;99.90;;;;;;5114229;28;19915;-77
2024/01/23 04:07:05;;;;;;;;;;;9.30;99.90;;;;;;5111113;28;19908;-76
2024/01/23 04:09:31;;;;;;;;;;;9.30;99.90;;;;;;5118245;28;19908;-76
2024/01/23 04:11:56;;;;;;;;;;;9.40;99.90;;;;;;5117844;28;20364;-77
2024/01/23 04:14:22;;;;;;;;;;;9.40;99.90;;;;;;5116892;28;20348;-77
2024/01/23 04:16:48;;;;;;;;;;;9.40;99.90;;;;;;5118158;28;20325;-77
2024/01/23 04:19:13;;;;;;;;;;;9.40;99.90;;;;;;5118472;28;19903;-77
2024/01/23 04:21:39;;;;;;;;;;;9.50;99.90;;;;;;5117819;28;19911;-76
2024/01/23 04:24:04;;;;;;;;;;;9.50;99.90;;;;;;5117156;28;19903;-76
2024/01/23 04:26:30;;;;;;;;;;;9.50;99.90;;;;;;5116806;28;19911;-77
2024/01/23 04:28:56;;;;;;;;;;;9.50;99.90;;;;;;5117990;27;19908;-77
2024/01/23 04:31:22;;;;;;;;;;;9.50;99.90;;;;;;5117991;28;19931;-77
2024/01/23 04:33:49;;;;;;;;;;;9.50;99.90;;;;;;5109280;28;19908;-77
2024/01/23 04:36:15;;;;;;;;;;;9.50;99.90;;;;;;5117453;28;19957;-76
2024/01/23 04:38:41;;;;;;;;;;;9.50;99.90;;;;;;5116431;28;19912;-76
2024/01/23 04:41:06;;;;;;;;;;;9.50;99.90;;;;;;5117530;28;19907;-76
2024/01/23 04:43:32;;;;;;;;;;;9.50;99.90;;;;;;5117669;27;19949;-77
2024/01/23 04:45:59;;;;;;;;;;;9.50;99.90;;;;;;5116126;28;19962;-76
2024/01/23 04:48:24;;;;;;;;;;;9.40;99.90;;;;;;5117934;28;19929;-76
2024/01/23 04:50:50;;;;;;;;;;;9.40;99.90;;;;;;5117135;27;19952;-77
2024/01/23 04:53:15;;;;;;;;;;;9.30;99.90;;;;;;5117857;28;19965;-76
2024/01/23 04:55:41;;;;;;;;;;;9.30;99.90;;;;;;5117087;28;20812;-76
2024/01/23 04:58:07;;;;;;;;;;;9.30;99.90;;;;;;5115674;28;19973;-76
2024/01/23 05:00:32;;;;;;;;;;;9.20;99.90;;;;;;5115490;28;19915;-76
2024/01/23 05:02:58;;;;;;;;;;;9.20;99.90;;;;;;5117617;28;19904;-76
2024/01/23 05:05:23;;;;;;;;;;;9.10;99.90;;;;;;5117125;28;19903;-76
2024/01/23 05:07:49;;;;;;;;;;;9.00;99.90;;;;;;5117479;27;19904;-76
2024/01/23 05:10:15;;;;;;;;;;;8.90;99.90;;;;;;5117079;28;19904;-76
2024/01/23 05:12:40;;;;;;;;;;;8.80;99.90;;;;;;5115516;28;19904;-76
2024/01/23 05:15:07;;;;;;;;;;;8.70;99.90;;;;;;5111613;28;19918;-76
2024/01/23 05:17:33;;;;;;;;;;;8.60;99.90;;;;;;5109168;28;19915;-76
2024/01/23 05:19:58;;;;;;;;;;;8.50;99.90;;;;;;5116750;28;20263;-76
2024/01/23 05:22:24;;;;;;;;;;;8.40;99.90;;;;;;5116905;28;19904;-76
2024/01/23 05:24:50;;;;;;;;;;;8.30;99.90;;;;;;5116188;28;19926;-76
2024/01/23 05:27:15;;;;;;;;;;;8.10;99.90;;;;;;5116667;28;19904;-76
2024/01/23 05:29:41;;;;;;;;;;;8.00;99.90;;;;;;5116938;28;20440;-76
2024/01/23 05:32:06;;;;;;;;;;;7.90;99.90;;;;;;5116940;28;19957;-76
2024/01/23 05:34:32;;;;;;;;;;;7.70;99.90;;;;;;5103179;28;19912;-76
2024/01/23 05:36:57;;;;;;;;;;;7.60;99.90;;;;;;5115189;28;19923;-76
2024/01/23 05:39:24;;;;;;;;;;;7.60;99.90;;;;;;5115229;28;19904;-76
2024/01/23 05:41:50;;;;;;;;;;;7.60;99.90;;;;;;5116511;28;19957;-75
2024/01/23 05:44:15;;;;;;;;;;;7.60;99.90;;;;;;5116358;28;19904;-75
2024/01/23 05:46:41;;;;;;;;;;;7.60;99.90;;;;;;5116715;28;19904;-76
2024/01/23 05:49:06;;;;;;;;;;;7.60;99.90;;;;;;5114885;28;19910;-76
2024/01/23 05:51:32;;;;;;;;;;;7.60;99.90;;;;;;5116708;28;19904;-76
2024/01/23 05:53:57;;;;;;;;;;;7.60;99.90;;;;;;5114900;28;19918;-75
2024/01/23 05:56:23;;;;;;;;;;;7.60;99.90;;;;;;5116747;28;19919;-75
2024/01/23 05:58:48;;;;;;;;;;;7.60;99.90;;;;;;5114867;28;19916;-75
2024/01/23 06:01:14;;;;;;;;;;;7.60;99.90;;;;;;5115009;28;19908;-75
2024/01/23 06:03:40;;;;;;;;;;;7.60;99.90;;;;;;5116301;28;19960;-75
2024/01/23 06:06:06;;;;;;;;;;;7.60;99.90;;;;;;5115035;28;19904;-75
2024/01/23 06:08:31;;;;;;;;;;;7.50;99.90;;;;;;5114383;28;20287;-75
2024/01/23 06:10:57;;;;;;;;;;;7.50;99.90;;;;;;5116450;28;19939;-75
2024/01/23 06:13:22;;;;;;;;;;;7.50;99.90;;;;;;5115656;28;19972;-75
2024/01/23 06:15:48;;;;;;;;;;;7.40;99.90;;;;;;5116118;28;19915;-75
2024/01/23 06:18:13;;;;;;;;;;;7.50;99.90;;;;;;5116186;28;19912;-75
2024/01/23 06:20:39;;;;;;;;;;;7.50;99.90;;;;;;5115082;28;19904;-75
2024/01/23 06:23:04;;;;;;;;;;;7.50;99.90;;;;;;5114658;28;19999;-76
2024/01/23 06:25:30;;;;;;;;;;;7.50;99.90;;;;;;5114773;28;19929;-76
2024/01/23 06:27:55;;;;;;;;;;;7.60;99.90;;;;;;5115627;28;19903;-76
2024/01/23 06:30:21;;;;;;;;;;;7.70;99.90;;;;;;5116057;28;19910;-76
2024/01/23 06:32:46;;;;;;;;;;;7.70;99.90;;;;;;5105313;28;19912;-76
2024/01/23 06:35:12;;;;;;;;;;;7.90;99.90;;;;;;5117329;28;19951;-76
2024/01/23 06:37:38;;;;;;;;;;;8.10;99.90;;;;;;5120107;28;19914;-76
2024/01/23 06:40:04;;;;;;;;;;;8.30;99.90;;;;;;5118857;28;20052;-76
2024/01/23 06:42:30;;;;;;;;;;;8.40;99.90;;;;;;5119739;28;19977;-76
2024/01/23 06:44:55;;;;;;;;;;;8.50;99.90;;;;;;5120291;28;19961;-76
2024/01/23 06:47:21;;;;;;;;;;;8.60;99.90;;;;;;5119753;28;19908;-76
2024/01/23 06:49:47;;;;;;;;;;;8.70;99.90;;;;;;5119925;28;19907;-75
2024/01/23 06:52:12;;;;;;;;;;;8.50;99.90;;;;;;5119518;28;19990;-76
2024/01/23 06:54:38;;;;;;;;;;;8.30;99.90;;;;;;5119850;28;19904;-76
2024/01/23 06:57:03;;;;;;;;;;;8.20;99.90;;;;;;5119223;28;19915;-76
2024/01/23 06:59:29;;;;;;;;;;;8.10;99.90;;;;;;5116928;28;19912;-76
2024/01/23 07:01:54;;;;;;;;;;;8.20;99.90;;;;;;5101261;28;20235;-76
2024/01/23 07:04:20;;;;;;;;;;;8.30;99.90;;;;;;5108728;28;19907;-77
2024/01/23 07:06:46;;;;;;;;;;;8.30;99.90;;;;;;5117356;28;20575;-76
2024/01/23 07:09:11;;;;;;;;;;;8.50;99.90;;;;;;5119514;28;20014;-76
2024/01/23 07:11:40;;;;;;;;;;;8.40;99.90;;;;;;5119395;28;19911;-76
2024/01/23 07:14:06;;;;;;;;;;;8.40;99.90;;;;;;5117926;28;19903;-76
2024/01/23 07:16:32;;;;;;;;;;;8.30;99.90;;;;;;5117876;28;20272;-75
2024/01/23 07:18:57;;;;;;;;;;;8.30;99.90;;;;;;5119357;28;19918;-76
2024/01/23 07:21:23;;;;;;;;;;;8.30;99.90;;;;;;5117699;28;20291;-76
2024/01/23 07:23:48;;;;;;;;;;;8.30;99.90;;;;;;5117209;28;19907;-75
2024/01/23 07:26:14;;;;;;;;;;;8.40;99.90;;;;;;5115996;28;19957;-76
2024/01/23 07:28:39;;;;;;;;;;;8.60;99.90;;;;;;5117230;28;19904;-76
2024/01/23 07:31:05;;;;;;;;;;;8.80;99.90;;;;;;5118621;28;19908;-76
2024/01/23 07:33:30;;;;;;;;;;;8.90;99.90;;;;;;5119030;27;19956;-76
2024/01/23 07:35:56;;;;;;;;;;;9.00;99.90;;;;;;5117493;28;19975;-76
2024/01/23 07:38:21;;;;;;;;;;;9.10;99.90;;;;;;5118697;28;20131;-77
2024/01/23 07:40:48;;;;;;;;;;;9.20;99.90;;;;;;5118812;28;20251;-76
2024/01/23 07:43:15;;;;;;;;;;;9.20;99.90;;;;;;5119026;28;19943;-76
2024/01/23 07:45:41;;;;;;;;;;;9.30;99.90;;;;;;5116956;28;19914;-76
2024/01/23 07:48:06;;;;;;;;;;;9.30;99.90;;;;;;5114392;28;19959;-76
2024/01/23 07:50:32;;;;;;;;;;;9.30;99.90;;;;;;5096525;27;19931;-76
2024/01/23 07:52:57;;;;;;;;;;;9.40;99.90;;;;;;5107041;28;19908;-81
2024/01/23 07:55:24;;;;;;;;;;;9.40;99.90;;;;;;5114473;28;19907;-81
2024/01/23 07:57:49;;;;;;;;;;;9.50;99.90;;;;;;5107365;28;19911;-82
2024/01/23 08:00:18;;;;;;;;;;;9.50;99.90;;;;;;5114345;28;19918;-82
2024/01/23 08:02:46;;;;;;;;;;;9.50;99.90;;;;;;5112773;28;20372;-83
2024/01/23 08:05:12;;;;;;;;;;;9.50;99.90;;;;;;5112553;28;20420;-82
2024/01/23 08:07:38;;;;;;;;;;;9.50;99.90;;;;;;5104148;28;19922;-82
2024/01/23 08:10:04;;;;;;;;;;;9.50;99.90;;;;;;5100537;28;19951;-81
2024/01/23 08:12:29;;;;;;;;;;;9.60;99.90;;;;;;5113886;28;20295;-82
2024/01/23 08:14:55;;;;;;;;;;;9.60;99.90;;;;;;5114330;28;19911;-81
2024/01/23 08:17:20;;;;;;;;;;;9.60;99.90;;;;;;5113745;28;19911;-82
2024/01/23 08:19:46;;;;;;;;;;;9.60;99.90;;;;;;5111711;28;19967;-81
2024/01/23 08:22:12;;;;;;;;;;;9.60;99.90;;;;;;5096826;28;19907;-83
2024/01/23 08:24:37;;;;;;;;;;;9.60;99.90;;;;;;5107393;28;19931;-82
2024/01/23 08:27:03;;;;;;;;;;;9.70;99.90;;;;;;5107053;28;20006;-82
2024/01/23 08:29:29;;;;;;;;;;;9.70;99.90;;;;;;5103885;27;19914;-82
2024/01/23 08:31:54;;;;;;;;;;;9.70;99.90;;;;;;5101687;28;19994;-82
2024/01/23 08:34:20;;;;;;;;;;;9.70;99.90;;;;;;5100865;28;20003;-81
2024/01/23 08:36:46;;;;;;;;;;;9.70;99.90;;;;;;5100569;28;19911;-81
2024/01/23 08:39:11;;;;;;;;;;;9.80;99.90;;;;;;5098072;28;19904;-82
2024/01/23 08:41:37;;;;;;;;;;;9.90;99.90;;;;;;5103483;28;19920;-82
2024/01/23 08:44:02;;;;;;;;;;;9.90;99.90;;;;;;5104095;28;20398;-82
2024/01/23 08:46:29;;;;;;;;;;;9.90;99.90;;;;;;5101668;28;19965;-82
2024/01/23 08:48:54;;;;;;;;;;;9.90;99.90;;;;;;5110673;28;19954;-81
2024/01/23 08:51:24;;;;;;;;;;;9.90;99.90;;;;;;5109193;28;19943;-81
2024/01/23 08:53:50;;;;;;;;;;;9.80;99.90;;;;;;5101593;28;19912;-81
2024/01/23 08:56:17;;;;;;;;;;;9.90;99.90;;;;;;5109007;28;20370;-82
2024/01/23 08:58:43;;;;;;;;;;;10.00;99.90;;;;;;5107192;28;19915;-83
2024/01/23 09:01:08;;;;;;;;;;;10.10;99.90;;;;;;5107427;28;19908;-83
2024/01/23 09:03:34;;;;;;;;;;;10.10;99.90;;;;;;5106865;28;19916;-83
2024/01/23 09:05:59;;;;;;;;;;;10.20;99.90;;;;;;5105019;28;19954;-83
2024/01/23 09:08:25;;;;;;;;;;;10.20;99.90;;;;;;5108877;28;19908;-83
2024/01/23 09:10:50;;;;;;;;;;;10.30;99.90;;;;;;5106506;28;19919;-82
2024/01/23 09:13:18;;;;;;;;;;;10.20;99.90;;;;;;5105405;28;19908;-83
2024/01/23 09:15:43;;;;;;;;;;;10.40;99.90;;;;;;5103894;28;19911;-82
2024/01/23 09:18:09;;;;;;;;;;;10.50;99.90;;;;;;5108245;28;19922;-82
2024/01/23 09:20:34;;;;;;;;;;;10.60;99.90;;;;;;5105076;27;19918;-82
2024/01/23 09:23:00;;;;;;;;;;;10.60;99.90;;;;;;5106965;28;19908;-82
2024/01/23 09:25:25;;;;;;;;;;;10.60;99.90;;;;;;5104819;28;20065;-82
2024/01/23 09:27:51;;;;;;;;;;;10.70;99.90;;;;;;5106680;28;20541;-82
2024/01/23 09:30:16;;;;;;;;;;;10.70;99.90;;;;;;5109592;28;20344;-82
2024/01/23 09:32:42;;;;;;;;;;;10.80;99.90;;;;;;5100200;28;20459;-82
2024/01/23 09:35:11;;;;;;;;;;;10.90;99.90;;;;;;5109336;28;20402;-82
2024/01/23 09:37:36;;;;;;;;;;;11.00;99.90;;;;;;5115198;28;19912;-82
2024/01/23 09:40:03;;;;;;;;;;;10.90;99.90;;;;;;5106824;28;19918;-82
2024/01/23 09:42:29;;;;;;;;;;;10.70;99.90;;;;;;5110500;27;19915;-82
2024/01/23 09:44:55;;;;;;;;;;;10.70;99.90;;;;;;5112342;28;20221;-83
2024/01/23 09:47:23;;;;;;;;;;;10.70;99.90;;;;;;5111864;28;19913;-83
2024/01/23 09:49:49;;;;;;;;;;;10.80;99.90;;;;;;5111895;28;20043;-81
2024/01/23 09:52:16;;;;;;;;;;;10.80;99.90;;;;;;5110051;28;19907;-80
2024/01/23 09:54:41;;;;;;;;;;;10.90;99.90;;;;;;5108954;28;19919;-82
2024/01/23 09:57:07;;;;;;;;;;;10.80;99.90;;;;;;5112955;28;20347;-80
2024/01/23 09:59:32;;;;;;;;;;;10.80;99.90;;;;;;5112223;28;21085;-82
2024/01/23 10:01:58;;;;;;;;;;;10.90;99.90;;;;;;5109189;28;19944;-82
2024/01/23 10:04:24;;;;;;;;;;;10.90;99.90;;;;;;5110299;28;19912;-81
2024/01/23 10:06:49;;;;;;;;;;;10.90;99.90;;;;;;5112996;28;19964;-82
2024/01/23 10:09:15;;;;;;;;;;;10.80;99.90;;;;;;5110007;28;19950;-82
2024/01/23 10:11:40;;;;;;;;;;;10.90;99.90;;;;;;5108130;28;19903;-82
2024/01/23 10:14:06;;;;;;;;;;;10.90;99.90;;;;;;5112087;28;19904;-82
2024/01/23 10:16:32;;;;;;;;;;;10.90;99.90;;;;;;5111880;28;19915;-82
2024/01/23 10:18:57;;;;;;;;;;;11.00;99.90;;;;;;5113836;28;19930;-81
2024/01/23 10:21:23;;;;;;;;;;;11.10;99.90;;;;;;5109379;28;20263;-77
2024/01/23 10:23:49;;;;;;;;;;;11.10;99.90;;;;;;5109984;28;20356;-83
2024/01/23 10:26:18;;;;;;;;;;;11.20;99.90;;;;;;5110523;28;19908;-77
2024/01/23 10:28:44;;;;;;;;;;;11.30;99.90;;;;;;5108605;28;19953;-83
2024/01/23 10:31:10;;;;;;;;;;;11.50;99.90;;;;;;5107199;28;19903;-84
2024/01/23 10:33:36;;;;;;;;;;;11.60;99.90;;;;;;5108612;28;19985;-84
2024/01/23 10:36:05;;;;;;;;;;;11.60;99.90;;;;;;5109908;28;19907;-83
2024/01/23 10:38:31;;;;;;;;;;;11.70;99.90;;;;;;5114070;28;19915;-83
2024/01/23 10:40:58;;;;;;;;;;;11.80;99.90;;;;;;5107878;28;19908;-82
2024/01/23 10:43:26;;;;;;;;;;;11.70;99.90;;;;;;5109664;28;19965;-84
2024/01/23 10:45:53;;;;;;;;;;;11.70;99.90;;;;;;5106999;28;19911;-83
2024/01/23 10:48:18;;;;;;;;;;;11.90;99.90;;;;;;5109154;28;19908;-83
2024/01/23 10:50:45;;;;;;;;;;;12.00;99.90;;;;;;5107140;28;19908;-83
2024/01/23 10:53:13;;;;;;;;;;;12.10;99.90;;;;;;5105001;28;19908;-83
2024/01/23 10:55:40;;;;;;;;;;;12.10;99.90;;;;;;5107332;28;19943;-83
2024/01/23 10:58:10;;;;;;;;;;;12.20;99.90;;;;;;5111516;28;19914;-83
2024/01/23 11:00:36;;;;;;;;;;;12.20;99.90;;;;;;5109883;28;20661;-83
2024/01/23 11:03:04;;;;;;;;;;;12.20;99.90;;;;;;5092816;28;19951;-83
2024/01/23 11:05:38;;;;;;;;;;;12.30;99.90;;;;;;5109045;28;19912;-84
2024/01/23 11:08:09;;;;;;;;;;;12.40;99.90;;;;;;5103821;28;19912;-83
2024/01/23 11:10:46;;;;;;;;;;;12.60;99.90;;;;;;5102214;28;19903;-84
2024/01/23 11:13:18;;;;;;;;;;;12.60;99.90;;;;;;5104110;28;20068;-83
2024/01/23 11:15:44;;;;;;;;;;;12.50;99.90;;;;;;5101241;28;19908;-84
2024/01/23 11:18:29;;;;;;;;;;;12.50;99.90;;;;;;5106140;28;19919;-83
2024/01/23 11:21:04;;;;;;;;;;;12.70;99.90;;;;;;5103332;28;19912;-83
2024/01/23 11:23:32;;;;;;;;;;;12.80;99.90;;;;;;5107174;28;20010;-83
2024/01/23 11:25:58;;;;;;;;;;;12.90;99.90;;;;;;5111606;28;19915;-83
2024/01/23 11:28:24;;;;;;;;;;;12.90;99.90;;;;;;5104648;28;19907;-83
2024/01/23 11:31:05;;;;;;;;;;;13.00;99.90;;;;;;5108018;28;20681;-82
2024/01/23 11:33:32;;;;;;;;;;;13.10;99.90;;;;;;5103905;28;19915;-81
2024/01/23 11:36:08;;;;;;;;;;;13.20;99.90;;;;;;5110165;28;19951;-82
2024/01/23 11:38:41;;;;;;;;;;;13.20;99.90;;;;;;5107854;28;19918;-84
2024/01/23 11:41:22;;;;;;;;;;;13.10;99.90;;;;;;5104511;28;20006;-82
2024/01/23 11:43:48;;;;;;;;;;;13.20;99.90;;;;;;5108270;28;19908;-83
2024/01/23 11:46:17;;;;;;;;;;;13.20;99.90;;;;;;5105924;28;20023;-83
2024/01/23 11:48:43;;;;;;;;;;;13.30;99.90;;;;;;5105232;28;19907;-84
2024/01/23 11:51:11;;;;;;;;;;;13.40;99.90;;;;;;5108236;28;19908;-83
2024/01/23 11:53:39;;;;;;;;;;;13.40;99.90;;;;;;5105295;28;19907;-83
2024/01/23 11:56:05;;;;;;;;;;;13.40;99.90;;;;;;5102517;28;19964;-82
2024/01/23 11:58:31;;;;;;;;;;;13.30;99.90;;;;;;5108815;28;19983;-81
2024/01/23 12:00:57;;;;;;;;;;;13.30;99.90;;;;;;5103564;28;19923;-83
2024/01/23 12:03:22;;;;;;;;;;;13.10;99.90;;;;;;5108666;28;19908;-82
2024/01/23 12:05:50;;;;;;;;;;;13.20;99.90;;;;;;5110859;27;19904;-82
2024/01/23 12:08:16;;;;;;;;;;;13.20;99.90;;;;;;5106495;28;20367;-83
2024/01/23 12:10:42;;;;;;;;;;;13.30;99.90;;;;;;5106066;28;19919;-82
2024/01/23 12:13:08;;;;;;;;;;;13.10;99.90;;;;;;5102035;28;19911;-82
2024/01/23 12:15:33;;;;;;;;;;;13.20;99.90;;;;;;5107759;28;19922;-82
2024/01/23 12:17:59;;;;;;;;;;;13.30;99.90;;;;;;5109421;28;19916;-83
2024/01/23 12:20:25;;;;;;;;;;;13.50;99.90;;;;;;5109775;27;20326;-83
2024/01/23 12:22:51;;;;;;;;;;;13.70;99.90;;;;;;5105962;28;19913;-82
2024/01/23 12:25:17;;;;;;;;;;;13.80;99.90;;;;;;5109796;28;19928;-83
2024/01/23 12:27:42;;;;;;;;;;;13.70;99.90;;;;;;5104470;28;19903;-83
2024/01/23 12:30:15;;;;;;;;;;;13.80;99.90;;;;;;5107495;28;20030;-82
2024/01/23 12:32:41;;;;;;;;;;;13.70;99.90;;;;;;5105460;28;20437;-82
2024/01/23 12:35:07;;;;;;;;;;;13.60;99.90;;;;;;5101070;28;19916;-82
2024/01/23 12:37:32;;;;;;;;;;;13.50;99.90;;;;;;5107052;28;19911;-82
2024/01/23 12:40:02;;;;;;;;;;;13.40;99.90;;;;;;5104082;28;20041;-83
2024/01/23 12:42:28;;;;;;;;;;;13.30;99.90;;;;;;5106130;28;19969;-84
2024/01/23 12:44:53;;;;;;;;;;;13.20;99.90;;;;;;5104752;28;19965;-83
2024/01/23 12:47:19;;;;;;;;;;;13.20;99.90;;;;;;5107455;28;19912;-82
2024/01/23 12:49:47;;;;;;;;;;;13.30;99.90;;;;;;5109552;28;19907;-82
2024/01/23 12:52:16;;;;;;;;;;;13.30;99.90;;;;;;5105915;28;19912;-82
2024/01/23 12:54:42;;;;;;;;;;;13.20;99.90;;;;;;5106066;28;19987;-83
2024/01/23 12:57:07;;;;;;;;;;;13.40;99.90;;;;;;5103519;28;19983;-83
2024/01/23 12:59:33;;;;;;;;;;;13.40;99.90;;;;;;5106032;28;19908;-84
2024/01/23 13:01:59;;;;;;;;;;;13.50;99.90;;;;;;5102409;28;19914;-83
2024/01/23 13:04:24;;;;;;;;;;;13.60;99.90;;;;;;5109825;28;19907;-83
2024/01/23 13:06:50;;;;;;;;;;;13.70;99.90;;;;;;5108622;28;19910;-82
2024/01/23 13:09:15;;;;;;;;;;;13.70;99.90;;;;;;5103051;28;19960;-82
2024/01/23 13:11:41;;;;;;;;;;;13.80;99.90;;;;;;5107321;28;19938;-83
2024/01/23 13:14:06;;;;;;;;;;;13.90;99.90;;;;;;5106930;28;19915;-82
2024/01/23 13:16:32;;;;;;;;;;;13.90;99.90;;;;;;5100346;28;19908;-83
2024/01/23 13:18:57;;;;;;;;;;;14.00;99.90;;;;;;5103658;28;19918;-82
2024/01/23 13:21:23;;;;;;;;;;;14.10;99.90;;;;;;5110409;28;19904;-82
2024/01/23 13:23:49;;;;;;;;;;;14.10;99.90;;;;;;5107000;28;19911;-82
2024/01/23 13:26:14;;;;;;;;;;;14.00;99.90;;;;;;5107170;28;19907;-81
2024/01/23 13:28:40;;;;;;;;;;;13.90;99.90;;;;;;5105299;28;19908;-81
2024/01/23 13:31:05;;;;;;;;;;;13.90;99.90;;;;;;5107211;28;20359;-80
2024/01/23 13:33:34;;;;;;;;;;;13.70;99.90;;;;;;5108824;28;19915;-80
2024/01/23 13:35:59;;;;;;;;;;;13.50;99.90;;;;;;5107432;28;19915;-81
2024/01/23 13:38:25;;;;;;;;;;;13.40;99.90;;;;;;5106953;28;19911;-81
2024/01/23 13:40:51;;;;;;;;;;;13.30;99.90;;;;;;5109184;28;19937;-80
2024/01/23 13:43:16;;;;;;;;;;;13.20;99.90;;;;;;5107949;28;20381;-81
2024/01/23 13:45:42;;;;;;;;;;;13.20;99.90;;;;;;5104430;28;19943;-80
2024/01/23 13:48:07;;;;;;;;;;;13.10;99.90;;;;;;5105059;28;19919;-80
2024/01/23 13:50:33;;;;;;;;;;;13.10;99.90;;;;;;5103612;28;19915;-73
2024/01/23 13:52:59;;;;;;;;;;;13.30;99.90;;;;;;5105587;28;19908;-81
2024/01/23 13:55:25;;;;;;;;;;;13.40;99.90;;;;;;5109936;28;19918;-81
2024/01/23 13:57:50;;;;;;;;;;;13.60;99.90;;;;;;5108833;28;19918;-81
2024/01/23 14:00:19;;;;;;;;;;;13.70;99.90;;;;;;5110248;27;20812;-82
2024/01/23 14:02:46;;;;;;;;;;;13.90;99.90;;;;;;5107891;28;19954;-81
2024/01/23 14:05:12;;;;;;;;;;;13.90;99.90;;;;;;5105657;28;20419;-81
2024/01/23 14:07:41;;;;;;;;;;;14.00;99.90;;;;;;5109700;28;19998;-82
2024/01/23 14:10:09;;;;;;;;;;;14.00;99.90;;;;;;5106485;28;20446;-75
2024/01/23 14:12:34;;;;;;;;;;;14.10;99.90;;;;;;5107268;28;19952;-82
2024/01/23 14:15:00;;;;;;;;;;;14.30;99.90;;;;;;5107694;28;19907;-82
2024/01/23 14:17:26;;;;;;;;;;;14.40;99.90;;;;;;5105745;28;19919;-82